»·PEaware :: N144PW PAKT-PASI

N144PW :: PAKT-PASI

FLIGHT INFORMATION

Flight Status: Arrived
Operator: Privately registered:
United States
More flights under this callsign
Pilot: Stacy K. (11621)
Aircraft: CESSNA 404 TITAN
(C404)
More flights by this aircraft type
Origin: PAKT Ketchikan Intl
United States
Destination: PASI Sitka Rocky Gutierrez
United States
More flights between these airports :: More routes between these airports
Route: VFR
File this flight plan on PilotEdge
Remarks:
Altitude:
(Current/Filed)
6,500ft
Speed:
(Current/Filed)
180kts
Departed: 08-Aug-17 07:07 AM
Arrived: 08-Aug-17 08:12 AM
Distance/Time
Traveled:
159nm/1:05
Distance/Time
To Go:
Arrived

Flight Plot

Page will automatically refresh every two minutes.

Flight plan parsing failed; only flown route is shown


Map Options




Map Legend


Flown Route
Filed Route
Departure Airport
Arrival Airport
Navaid (VOR, NDB)
Fix

Horizontal Profiles

Position Reports

Time Latitude Longitude Heading Altitude Ground
Speed
08-Aug-17 07:05 55.355924 -131.709536 135 56ft 0kts
08-Aug-17 07:06 55.355923 -131.709535 135 56ft 0kts
08-Aug-17 07:07 55.355387 -131.709367 175 56ft 8kts
08-Aug-17 07:08 55.350037 -131.702190 138 121ft 29kts
08-Aug-17 07:09 55.348811 -131.702856 314 138ft 27kts
08-Aug-17 07:10 55.366896 -131.731859 322 861ft 115kts
08-Aug-17 07:11 55.398223 -131.771053 324 1940ft 155kts
08-Aug-17 07:12 55.436001 -131.815204 330 2960ft 168kts
08-Aug-17 07:13 55.468088 -131.875976 304 4001ft 180kts
08-Aug-17 07:14 55.500767 -131.943802 312 4493ft 189kts
08-Aug-17 07:15 55.538535 -132.012682 311 4499ft 197kts
08-Aug-17 07:16 55.573316 -132.085967 312 4494ft 190kts
08-Aug-17 07:17 55.609074 -132.151584 314 4502ft 183kts
08-Aug-17 07:18 55.644245 -132.216917 314 4503ft 183kts
08-Aug-17 07:19 55.673506 -132.271192 314 4505ft 183kts
08-Aug-17 07:20 55.708639 -132.336396 314 4507ft 183kts
08-Aug-17 07:21 55.743856 -132.401813 314 4513ft 182kts
08-Aug-17 07:22 55.778985 -132.466996 314 4516ft 183kts
08-Aug-17 07:23 55.814176 -132.532280 314 4517ft 183kts
08-Aug-17 07:24 55.849257 -132.597651 313 4521ft 182kts
08-Aug-17 07:25 55.890763 -132.674973 314 4518ft 189kts
08-Aug-17 07:26 55.922114 -132.727704 330 4525ft 184kts
08-Aug-17 07:27 55.968230 -132.767246 333 4519ft 184kts
08-Aug-17 07:28 56.014883 -132.805012 334 4502ft 185kts
08-Aug-17 07:29 56.060728 -132.846901 328 4503ft 185kts
08-Aug-17 07:30 56.105970 -132.892002 331 4505ft 185kts
08-Aug-17 07:31 56.152130 -132.934071 333 4505ft 186kts
08-Aug-17 07:32 56.201059 -132.965740 343 4506ft 187kts
08-Aug-17 07:33 56.252231 -132.987303 347 4495ft 188kts
08-Aug-17 07:34 56.303460 -133.005316 347 4500ft 187kts
08-Aug-17 07:35 56.355539 -133.018180 350 4501ft 189kts
08-Aug-17 07:36 56.405245 -133.047114 336 4500ft 188kts
08-Aug-17 07:37 56.453281 -133.084043 332 4502ft 188kts
08-Aug-17 07:38 56.494864 -133.141470 321 4504ft 188kts
08-Aug-17 07:39 56.535056 -133.202524 318 4506ft 189kts
08-Aug-17 07:40 56.574085 -133.266879 317 4506ft 191kts
08-Aug-17 07:41 56.613359 -133.332077 317 4503ft 190kts
08-Aug-17 07:42 56.652285 -133.396763 317 4503ft 189kts
08-Aug-17 07:43 56.691083 -133.461056 317 4502ft 189kts
08-Aug-17 07:44 56.730344 -133.526467 317 4506ft 193kts
08-Aug-17 07:45 56.770050 -133.592724 317 4508ft 195kts
08-Aug-17 07:46 56.809666 -133.658813 317 4507ft 191kts
08-Aug-17 07:47 56.845681 -133.728695 284 4508ft 191kts
08-Aug-17 07:48 56.848082 -133.829650 271 3853ft 198kts
08-Aug-17 07:49 56.848519 -133.926771 271 2939ft 189kts
08-Aug-17 07:50 56.848956 -134.019320 271 2491ft 170kts
08-Aug-17 07:51 56.849282 -134.101225 271 2578ft 166kts
08-Aug-17 07:52 56.847419 -134.191743 266 3263ft 185kts
08-Aug-17 07:53 56.846387 -134.287036 272 3500ft 190kts
08-Aug-17 07:54 56.848463 -134.381956 271 3900ft 175kts
08-Aug-17 07:55 56.848643 -134.470147 271 4900ft 174kts
08-Aug-17 07:56 56.848849 -134.561112 271 5502ft 189kts
08-Aug-17 07:57 56.849244 -134.660835 271 5506ft 200kts
08-Aug-17 07:58 56.849820 -134.763033 271 5506ft 202kts
08-Aug-17 07:59 56.850476 -134.865860 271 5506ft 202kts
08-Aug-17 08:00 56.851103 -134.965004 270 4913ft 193kts
08-Aug-17 08:01 56.852270 -135.064302 271 4260ft 196kts
08-Aug-17 08:02 56.852977 -135.163597 270 3589ft 196kts
08-Aug-17 08:03 56.853683 -135.262720 271 2925ft 194kts
08-Aug-17 08:04 56.861799 -135.358157 290 2256ft 187kts
08-Aug-17 08:05 56.890062 -135.434612 305 1806ft 174kts
08-Aug-17 08:06 56.920147 -135.499857 326 1807ft 170kts
08-Aug-17 08:07 56.963524 -135.539036 333 1805ft 175kts
08-Aug-17 08:08 57.009413 -135.569759 344 1805ft 176kts
08-Aug-17 08:09 57.055983 -135.570487 16 1801ft 158kts
08-Aug-17 08:10 57.097992 -135.554562 8 1804ft 152kts
08-Aug-17 08:11 57.106122 -135.498355 104 1930ft 128kts
08-Aug-17 08:12 57.089349 -135.438376 134 1034ft 120kts
08-Aug-17 08:13 57.066934 -135.397754 132 361ft 106kts
08-Aug-17 08:14 57.047426 -135.362100 135 26ft 67kts
08-Aug-17 08:15 57.048287 -135.362731 349 25ft 21kts
08-Aug-17 08:16 57.051477 -135.364372 341 25ft 10kts
08-Aug-17 08:17 57.051777 -135.364649 309 25ft 0kts
08-Aug-17 08:18 57.051777 -135.364649 309 25ft 0kts
08-Aug-17 08:19 57.051777 -135.364649 309 25ft 0kts
08-Aug-17 08:20 57.051777 -135.364649 309 25ft 0kts

Navigation Log

Ident Type
Flight plan parsing failed, navigation log unavailable